Time;durP1;ratioP1;P1;durP2;ratioP2;P2;SDS_P1;SDS_P2;PMS_P1;PMS_P2;Temp;Humidity;BMP_temperature;BMP_pressure;BME280_temperature;BME280_humidity;BME280_pressure;Samples;Min_cycle;Max_cycle;Signal;HPM_P1;HPM_P2
2022/07/13 00:01:10;;;;;;;18.00;13.98;;;;;;;28.25;67.96;100389.72;4950004;28;69043;-38
2022/07/13 00:03:41;;;;;;;25.70;14.00;;;;;;;28.34;69.08;100394.88;4953643;28;65990;-38
2022/07/13 00:06:12;;;;;;;32.90;15.25;;;;;;;28.43;70.34;100393.59;5022599;28;69237;-39
2022/07/13 00:08:50;;;;;;;40.42;15.50;;;;;;;28.50;70.80;100389.84;4969609;28;65317;-40
2022/07/13 00:11:21;;;;;;;28.73;15.77;;;;;;;28.57;71.61;100394.38;4954269;28;69238;-39
2022/07/13 00:13:52;;;;;;;34.13;15.68;;;;;;;28.60;72.16;100389.34;4955173;28;67552;-37
2022/07/13 00:16:23;;;;;;;32.95;15.50;;;;;;;28.70;72.60;100395.13;4957409;28;70175;-39
2022/07/13 00:18:53;;;;;;;33.92;15.43;;;;;;;28.74;73.31;100400.91;5014813;28;66000;-37
2022/07/13 00:21:25;;;;;;;29.90;14.73;;;;;;;28.78;73.30;100403.97;4958881;28;70309;-40
2022/07/13 00:24:00;;;;;;;36.80;15.52;;;;;;;28.81;73.20;100401.69;4964837;28;64974;-40
2022/07/13 00:26:31;;;;;;;30.30;14.75;;;;;;;28.85;74.63;100411.00;5022524;28;71841;-39
2022/07/13 00:29:02;;;;;;;37.53;14.87;;;;;;;28.89;74.41;100423.03;4964928;28;66812;-40
2022/07/13 00:31:34;;;;;;;31.30;14.38;;;;;;;28.88;74.85;100415.97;5020308;28;69922;-39
2022/07/13 00:34:04;;;;;;;25.10;13.68;;;;;;;28.92;74.92;100417.19;4955416;28;65659;-40
2022/07/13 00:36:37;;;;;;;30.42;12.18;;;;;;;28.93;75.06;100421.53;4952533;28;70016;-39
2022/07/13 00:39:08;;;;;;;26.90;11.23;;;;;;;29.01;74.54;100428.56;4955752;28;65447;-37
2022/07/13 00:41:47;;;;;;;17.33;9.38;;;;;;;29.02;75.20;100441.00;4955976;28;69386;-40
2022/07/13 00:44:21;;;;;;;13.13;8.10;;;;;;;29.07;72.92;100443.91;4953306;28;65648;-39
2022/07/13 00:46:54;;;;;;;13.38;7.35;;;;;;;28.82;71.83;100389.84;5020225;28;70266;-38
2022/07/13 00:49:32;;;;;;;13.50;7.10;;;;;;;29.00;71.40;100420.66;5012489;28;65782;-39
2022/07/13 00:52:03;;;;;;;10.32;7.00;;;;;;;29.21;70.91;100447.34;5022196;28;67774;-39
2022/07/13 00:54:41;;;;;;;8.80;6.55;;;;;;;29.27;70.91;100459.97;4959540;28;66611;-38
2022/07/13 00:57:15;;;;;;;10.20;6.45;;;;;;;28.99;70.36;100400.09;4957327;28;70565;-40
2022/07/13 00:59:47;;;;;;;6.38;5.78;;;;;;;29.09;70.76;100411.28;5026551;28;64625;-39
2022/07/13 01:02:17;;;;;;;9.73;5.93;;;;;;;29.33;70.38;100448.28;4953356;28;69417;-38
2022/07/13 01:04:48;;;;;;;8.75;6.28;;;;;;;29.40;70.42;100457.16;5022042;28;65377;-39
2022/07/13 01:07:23;;;;;;;6.88;5.65;;;;;;;29.42;70.34;100456.09;4956384;28;69454;-38
2022/07/13 01:09:54;;;;;;;5.97;5.43;;;;;;;29.46;70.05;100468.13;5016614;28;65693;-39
2022/07/13 01:12:30;;;;;;;6.28;5.35;;;;;;;29.10;70.03;100404.84;4959683;28;70192;-39
2022/07/13 01:15:01;;;;;;;11.55;6.53;;;;;;;29.49;69.90;100465.81;4959919;28;65907;-39
2022/07/13 01:17:35;;;;;;;7.40;5.82;;;;;;;29.26;69.10;100420.50;5003459;28;69828;-39
2022/07/13 01:20:08;;;;;;;6.40;5.65;;;;;;;29.43;69.58;100446.97;4998576;28;66842;-40
2022/07/13 01:22:45;;;;;;;9.25;5.75;;;;;;;29.46;69.37;100460.03;5024046;28;70315;-39
2022/07/13 01:25:23;;;;;;;6.18;5.63;;;;;;;29.55;69.00;100469.50;4951552;28;66918;-40
2022/07/13 01:27:54;;;;;;;7.75;6.32;;;;;;;29.60;69.29;100465.09;5025627;28;70162;-40
2022/07/13 01:30:25;;;;;;;7.25;6.03;;;;;;;29.57;68.95;100465.53;4955795;28;65297;-40
2022/07/13 01:32:56;;;;;;;8.45;6.43;;;;;;;29.66;68.53;100474.22;5024382;28;68682;-39
2022/07/13 01:35:27;;;;;;;6.32;5.72;;;;;;;29.68;68.29;100477.53;4959592;28;66385;-39
2022/07/13 01:37:58;;;;;;;6.63;5.80;;;;;;;29.70;68.59;100475.44;5023738;28;71617;-40
2022/07/13 01:40:29;;;;;;;8.90;5.97;;;;;;;29.70;68.44;100475.44;4953871;28;65715;-39
2022/07/13 01:43:00;;;;;;;9.32;6.13;;;;;;;29.73;68.27;100480.41;5019628;28;69443;-40
2022/07/13 01:45:31;;;;;;;6.40;5.50;;;;;;;29.74;67.97;100492.88;4956894;28;64587;-40
2022/07/13 01:48:01;;;;;;;10.25;6.40;;;;;;;29.77;67.64;100486.19;5026166;28;67924;-39
2022/07/13 01:50:32;;;;;;;7.43;5.97;;;;;;;29.74;67.91;100482.06;5026363;28;66227;-39
2022/07/13 01:53:03;;;;;;;6.47;5.82;;;;;;;29.79;67.27;100490.31;4956423;28;70336;-38
2022/07/13 01:55:35;;;;;;;12.05;6.82;;;;;;;29.79;67.65;100481.41;5023608;28;66202;-40
2022/07/13 01:58:05;;;;;;;6.80;6.03;;;;;;;29.83;67.27;100491.53;5023894;28;71961;-41
2022/07/13 02:00:36;;;;;;;7.32;5.90;;;;;;;29.81;66.88;100479.28;5036289;28;65018;-40
2022/07/13 02:03:07;;;;;;;10.85;6.10;;;;;;;29.90;67.19;100490.66;4957155;28;69312;-38
2022/07/13 02:05:38;;;;;;;10.02;6.13;;;;;;;29.74;66.97;100476.66;4958088;28;65410;-40
2022/07/13 02:08:12;;;;;;;7.82;5.75;;;;;;;29.92;67.08;100483.97;4955381;28;69214;-40
2022/07/13 02:10:43;;;;;;;;;;;;;;;29.62;68.07;100494.63;5019236;28;66690;-40
2022/07/13 02:13:14;;;;;;;7.38;5.70;;;;;;;29.83;66.81;100466.38;5029620;28;70529;-40
2022/07/13 02:15:45;;;;;;;6.88;5.50;;;;;;;29.81;66.58;100461.19;5024525;28;65891;-39
2022/07/13 02:18:16;;;;;;;8.38;5.95;;;;;;;29.97;66.42;100486.00;5042272;28;69919;-40
2022/07/13 02:20:48;;;;;;;7.25;6.10;;;;;;;29.98;66.26;100480.38;4954683;28;66035;-40
2022/07/13 02:23:18;;;;;;;7.73;5.53;;;;;;;30.08;66.10;100481.72;5016331;28;69632;-40
2022/07/13 02:25:50;;;;;;;6.05;5.45;;;;;;;30.09;66.31;100484.22;5024989;28;66341;-39
2022/07/13 02:28:21;;;;;;;6.63;5.22;;;;;;;30.06;66.42;100480.09;5019632;28;69770;-40
2022/07/13 02:30:52;;;;;;;6.32;5.43;;;;;;;30.12;66.41;100472.13;5022633;28;65698;-40
2022/07/13 02:33:23;;;;;;;6.88;5.95;;;;;;;30.13;65.74;100473.75;4958468;28;69929;-39
2022/07/13 02:35:53;;;;;;;7.57;5.85;;;;;;;30.12;66.23;100472.94;5023902;28;66006;-39
2022/07/13 02:38:24;;;;;;;7.53;5.35;;;;;;;30.10;66.01;100475.03;5033708;28;70782;-39
2022/07/13 02:40:55;;;;;;;9.30;5.07;;;;;;;30.18;66.07;100466.63;4959177;28;66753;-39
2022/07/13 02:43:26;;;;;;;10.37;5.30;;;;;;;30.26;65.46;100496.13;4953737;28;68730;-40
2022/07/13 02:45:57;;;;;;;6.20;5.05;;;;;;;30.07;65.78;100456.56;4958668;28;66426;-39
2022/07/13 02:48:28;;;;;;;6.82;4.80;;;;;;;30.32;65.97;100482.75;4948910;28;70339;-40
2022/07/13 02:51:00;;;;;;;5.13;4.50;;;;;;;30.31;65.95;100476.47;5021317;28;65564;-40
2022/07/13 02:53:31;;;;;;;6.03;4.70;;;;;;;30.31;65.23;100489.19;4957120;28;70173;-39
2022/07/13 02:56:02;;;;;;;9.53;5.03;;;;;;;30.17;65.84;100467.69;4955288;28;65193;-40
2022/07/13 02:58:33;;;;;;;8.80;4.20;;;;;;;30.32;65.67;100466.50;5013475;28;69893;-39
2022/07/13 03:01:04;;;;;;;7.00;4.47;;;;;;;30.43;65.19;100482.00;5033659;28;66055;-42
2022/07/13 03:03:35;;;;;;;7.22;4.35;;;;;;;30.46;65.68;100478.81;5031553;28;69150;-40
2022/07/13 03:06:06;;;;;;;6.10;4.20;;;;;;;30.48;65.53;100476.72;5031891;28;66020;-41
2022/07/13 03:08:38;;;;;;;10.20;4.18;;;;;;;30.11;64.82;100428.00;5030961;28;70511;-42
2022/07/13 03:11:09;;;;;;;7.00;4.37;;;;;;;30.45;65.09;100471.75;5029060;28;64873;-39
2022/07/13 03:13:40;;;;;;;5.90;3.78;;;;;;;30.51;65.49;100487.09;5035027;28;69545;-39
2022/07/13 03:16:11;;;;;;;5.85;3.80;;;;;;;30.53;65.46;100474.13;5036660;28;66423;-40
2022/07/13 03:18:42;;;;;;;5.43;3.78;;;;;;;30.54;65.06;100475.00;5035348;28;69972;-39
2022/07/13 03:21:13;;;;;;;7.53;3.95;;;;;;;30.55;65.64;100477.44;5032245;28;65896;-40
2022/07/13 03:23:44;;;;;;;3.78;3.28;;;;;;;30.59;64.91;100473.25;5033616;28;69666;-40
2022/07/13 03:26:15;;;;;;;4.95;3.38;;;;;;;30.48;64.88;100445.06;5033415;28;65743;-43
2022/07/13 03:28:46;;;;;;;5.25;3.38;;;;;;;30.63;64.80;100469.00;5033232;28;70089;-40
2022/07/13 03:31:17;;;;;;;7.25;3.83;;;;;;;30.65;64.95;100472.34;5035524;28;65457;-40
2022/07/13 03:33:49;;;;;;;;;;;;;;;30.30;65.50;100469.44;5036444;28;71168;-41
2022/07/13 03:36:19;;;;;;;5.93;3.45;;;;;;;30.64;64.76;100464.44;5038221;28;66154;-42
2022/07/13 03:38:51;;;;;;;5.50;3.88;;;;;;;30.68;65.07;100462.94;5034148;28;70375;-40
2022/07/13 03:41:23;;;;;;;5.32;3.08;;;;;;;30.70;64.94;100468.91;5034116;28;66622;-42
2022/07/13 03:43:54;;;;;;;4.82;2.90;;;;;;;30.60;65.29;100453.25;5046917;28;69757;-41
2022/07/13 03:46:25;;;;;;;4.67;3.27;;;;;;;30.67;64.73;100462.09;5035335;28;66209;-40
2022/07/13 03:48:56;;;;;;;5.90;3.07;;;;;;;30.71;65.13;100457.88;5022118;28;70998;-40
2022/07/13 03:51:30;;;;;;;5.60;3.55;;;;;;;30.69;64.53;100451.84;5035420;28;65309;-41
2022/07/13 03:54:01;;;;;;;4.70;2.90;;;;;;;30.73;64.62;100447.66;5037007;28;70671;-40
2022/07/13 03:56:32;;;;;;;9.27;3.25;;;;;;;30.77;65.01;100448.00;5035491;28;66232;-39
2022/07/13 03:59:06;;;;;;;4.45;3.22;;;;;;;30.69;64.83;100432.91;5040126;28;69854;-40
2022/07/13 04:01:37;;;;;;;6.80;3.25;;;;;;;30.77;64.88;100448.00;5036902;28;66467;-40
2022/07/13 04:04:08;;;;;;;3.80;2.83;;;;;;;30.73;64.92;100436.00;5029477;28;69961;-40
2022/07/13 04:06:42;;;;;;;3.45;2.70;;;;;;;30.80;65.02;100446.75;5037342;28;65993;-39
2022/07/13 04:09:13;;;;;;;4.22;3.25;;;;;;;30.72;64.55;100424.31;5035937;28;71520;-40
2022/07/13 04:11:44;;;;;;;4.15;3.20;;;;;;;30.70;64.88;100421.03;5033292;28;65450;-39
2022/07/13 04:14:15;;;;;;;4.83;3.63;;;;;;;30.79;64.63;100437.78;5033094;28;69430;-39
2022/07/13 04:16:46;;;;;;;6.03;3.55;;;;;;;30.78;64.75;100414.44;5038721;28;66189;-41
2022/07/13 04:19:18;;;;;;;3.65;2.97;;;;;;;30.82;65.34;100423.81;5002773;28;69002;-43
2022/07/13 04:21:49;;;;;;;4.53;3.13;;;;;;;30.82;65.26;100418.38;5004297;28;64698;-39
2022/07/13 04:24:24;;;;;;;5.72;3.17;;;;;;;30.85;64.65;100406.28;5032369;28;70038;-40
2022/07/13 04:26:56;;;;;;;4.38;3.25;;;;;;;30.72;65.23;100386.41;5036822;28;65086;-39
2022/07/13 04:29:26;;;;;;;7.45;2.90;;;;;;;30.82;65.27;100394.03;5037583;28;71131;-38
2022/07/13 04:31:57;;;;;;;3.88;3.22;;;;;;;30.90;65.18;100406.41;5037059;28;65449;-40
2022/07/13 04:34:29;;;;;;;4.50;3.50;;;;;;;30.90;64.97;100403.69;5038068;28;69950;-40
2022/07/13 04:37:00;;;;;;;4.50;4.00;;;;;;;30.92;65.24;100397.00;5012467;28;65466;-39
2022/07/13 04:39:32;;;;;;;5.38;3.83;;;;;;;30.86;64.80;100381.66;5036480;28;69438;-40
2022/07/13 04:42:03;;;;;;;6.72;4.18;;;;;;;30.80;64.88;100355.50;5037211;28;65572;-40
2022/07/13 04:44:35;;;;;;;4.40;3.97;;;;;;;30.99;65.02;100375.22;5031695;28;69794;-39
2022/07/13 04:47:07;;;;;;;4.60;4.10;;;;;;;30.99;64.49;100386.03;5034647;28;66016;-40
2022/07/13 04:49:39;;;;;;;4.07;3.67;;;;;;;31.01;64.68;100378.53;5035727;28;69994;-40
2022/07/13 04:52:10;;;;;;;3.83;3.45;;;;;;;31.05;64.43;100384.28;5036567;28;66121;-39
2022/07/13 04:54:44;;;;;;;6.07;3.80;;;;;;;31.07;64.83;100383.00;5037408;28;68989;-40
2022/07/13 04:57:21;;;;;;;5.15;4.05;;;;;;;31.09;64.50;100382.75;5038462;28;66821;-39
2022/07/13 04:59:52;;;;;;;4.88;3.55;;;;;;;31.07;64.68;100377.59;5032065;28;69094;-39
2022/07/13 05:02:23;;;;;;;5.03;3.80;;;;;;;31.00;64.83;100362.50;4944836;28;65460;-40
2022/07/13 05:04:54;;;;;;;8.37;3.47;;;;;;;31.08;64.72;100376.50;5035755;28;70455;-40
2022/07/13 05:07:25;;;;;;;4.38;3.67;;;;;;;31.09;64.92;100375.47;5016531;28;66001;-38
2022/07/13 05:09:57;;;;;;;5.60;3.65;;;;;;;31.11;65.20;100373.31;5018827;28;70045;-39
2022/07/13 05:12:28;;;;;;;4.72;3.38;;;;;;;31.11;65.12;100361.66;5014852;28;65922;-40
2022/07/13 05:14:59;;;;;;;7.00;3.43;;;;;;;31.12;65.03;100374.16;5021647;28;69331;-40
2022/07/13 05:17:30;;;;;;;4.13;3.00;;;;;;;31.04;64.92;100345.53;5023348;28;67065;-40
2022/07/13 05:20:05;;;;;;;4.47;3.47;;;;;;;31.12;64.77;100347.91;5017357;28;70352;-41
2022/07/13 05:22:47;;;;;;;3.03;2.72;;;;;;;31.15;64.84;100347.44;5007769;28;65308;-40
2022/07/13 05:25:40;;;;;;;4.15;3.00;;;;;;;31.21;65.30;100344.84;5021571;28;70402;-39
2022/07/13 05:28:36;;;;;;;;;;;;;;;;;;;;;
2022/07/13 05:31:43;;;;;;;4.07;3.33;;;;;;;31.13;65.36;100329.75;4958549;28;69824;-43
2022/07/13 05:34:26;;;;;;;3.13;2.83;;;;;;;31.20;65.12;100313.38;5013123;28;66223;-41
2022/07/13 05:36:58;;;;;;;6.03;2.80;;;;;;;31.31;64.97;100323.38;4995660;28;71174;-39
2022/07/13 05:39:29;;;;;;;7.32;3.08;;;;;;;31.25;64.50;100308.91;5010642;28;66600;-42
2022/07/13 05:42:00;;;;;;;4.60;3.33;;;;;;;31.31;65.13;100310.66;5022628;28;69232;-42
2022/07/13 05:44:31;;;;;;;8.20;2.87;;;;;;;31.34;64.90;100307.50;5002405;28;66972;-40
2022/07/13 05:47:03;;;;;;;3.22;2.72;;;;;;;31.27;64.77;100289.72;4991681;28;69816;-39
2022/07/13 05:49:35;;;;;;;3.10;2.38;;;;;;;31.41;64.59;100291.13;4952759;28;66570;-40
2022/07/13 05:52:08;;;;;;;2.63;2.22;;;;;;;31.46;64.33;100283.13;5024367;28;70355;-38
2022/07/13 05:54:40;;;;;;;3.85;2.30;;;;;;;31.38;64.52;100275.34;5026153;28;66160;-40
2022/07/13 05:57:13;;;;;;;3.53;2.83;;;;;;;31.43;64.52;100267.34;4958088;28;69431;-40
2022/07/13 05:59:44;;;;;;;3.03;2.75;;;;;;;31.51;64.43;100280.53;5022047;28;65758;-40
2022/07/13 06:02:15;;;;;;;5.43;2.40;;;;;;;31.52;64.59;100271.31;4955693;28;69925;-39
2022/07/13 06:04:46;;;;;;;3.10;2.45;;;;;;;31.57;64.23;100268.72;5020164;28;65037;-40
2022/07/13 06:07:17;;;;;;;2.85;2.33;;;;;;;31.58;64.12;100264.94;5021288;28;69804;-39
2022/07/13 06:09:47;;;;;;;3.35;2.25;;;;;;;31.61;64.13;100259.03;4948524;28;65974;-40
2022/07/13 06:12:18;;;;;;;2.50;2.28;;;;;;;31.59;64.36;100255.75;4955303;28;70163;-39
2022/07/13 06:14:49;;;;;;;4.05;2.38;;;;;;;31.64;63.97;100254.19;4955156;28;66260;-40
2022/07/13 06:17:21;;;;;;;4.27;2.27;;;;;;;31.65;63.99;100253.13;5008185;28;70023;-40
2022/07/13 06:19:52;;;;;;;3.00;2.40;;;;;;;31.63;64.11;100249.84;4954902;28;65676;-40
2022/07/13 06:22:24;;;;;;;4.53;2.40;;;;;;;31.63;64.26;100244.41;5030324;28;69718;-40
2022/07/13 06:24:55;;;;;;;4.03;2.58;;;;;;;31.65;64.22;100231.41;5015062;28;66134;-41
2022/07/13 06:27:26;;;;;;;3.30;2.17;;;;;;;31.60;64.52;100230.28;4953478;28;70451;-40
2022/07/13 06:29:57;;;;;;;2.72;1.98;;;;;;;31.70;63.85;100228.81;4959812;28;65647;-40
2022/07/13 06:32:28;;;;;;;3.78;2.00;;;;;;;31.72;63.95;100205.81;5018185;28;70300;-40
2022/07/13 06:34:58;;;;;;;6.72;2.17;;;;;;;31.74;64.32;100208.31;4958844;28;66347;-41
2022/07/13 06:37:29;;;;;;;3.78;2.22;;;;;;;31.66;63.82;100190.53;5031506;28;70142;-39
2022/07/13 06:40:14;;;;;;;5.22;2.55;;;;;;;31.68;63.91;100192.97;4958673;28;65677;-40
2022/07/13 06:43:03;;;;;;;2.47;2.13;;;;;;;31.76;64.20;100192.59;5002599;28;70224;-40
2022/07/13 06:45:34;;;;;;;2.83;2.00;;;;;;;31.82;63.98;100194.34;4958246;28;65598;-40
2022/07/13 06:48:05;;;;;;;2.42;1.90;;;;;;;31.87;63.88;100197.13;4952224;28;70104;-41
2022/07/13 06:50:36;;;;;;;5.10;2.38;;;;;;;31.75;63.70;100158.41;4955170;28;65826;-39
2022/07/13 06:53:07;;;;;;;3.28;2.15;;;;;;;31.93;63.70;100174.50;4954103;28;69580;-41
2022/07/13 06:55:38;;;;;;;4.77;2.10;;;;;;;31.95;63.82;100168.84;4952251;28;66101;-40
2022/07/13 06:58:09;;;;;;;4.35;2.20;;;;;;;31.91;63.51;100154.94;4952725;28;68936;-40
2022/07/13 07:00:40;;;;;;;4.22;1.80;;;;;;;31.99;63.70;100157.25;4959388;28;65362;-40
2022/07/13 07:03:11;;;;;;;2.70;2.30;;;;;;;32.03;63.58;100157.59;4956703;28;68883;-40
2022/07/13 07:05:42;;;;;;;2.90;2.30;;;;;;;32.07;63.28;100147.06;4958456;28;65448;-40
2022/07/13 07:08:13;;;;;;;4.00;2.33;;;;;;;32.12;63.34;100147.13;4949252;28;69848;-40
2022/07/13 07:10:44;;;;;;;;;;;;;;;31.78;64.11;100134.34;4951866;28;66397;-40
2022/07/13 07:13:15;;;;;;;4.50;2.15;;;;;;;32.12;63.01;100133.56;4956705;28;69499;-40
2022/07/13 07:15:46;;;;;;;3.03;2.20;;;;;;;32.16;63.03;100134.75;4959459;28;66291;-40
2022/07/13 07:18:17;;;;;;;3.72;2.20;;;;;;;32.13;62.69;100113.53;4953105;28;70234;-39
2022/07/13 07:20:49;;;;;;;10.23;1.83;;;;;;;32.10;62.73;100103.19;4957334;28;65975;-39
2022/07/13 07:23:19;;;;;;;;;;;;;;;31.87;63.30;100113.06;4958894;28;70096;-40
2022/07/13 07:25:50;;;;;;;3.10;2.25;;;;;;;32.18;62.72;100100.88;4953137;28;65717;-40
2022/07/13 07:28:37;;;;;;;2.45;2.00;;;;;;;32.16;62.53;100102.19;4954916;28;69795;-40
2022/07/13 07:31:11;;;;;;;4.30;1.90;;;;;;;32.25;62.52;100097.97;4954032;28;66797;-39
2022/07/13 07:33:42;;;;;;;2.95;1.90;;;;;;;32.25;62.43;100090.66;4955181;28;69888;-39
2022/07/13 07:36:13;;;;;;;5.10;1.98;;;;;;;32.30;62.53;100087.19;4954372;28;65677;-39
2022/07/13 07:38:44;;;;;;;7.10;2.63;;;;;;;32.33;62.16;100085.88;4952286;28;69333;-39
2022/07/13 07:41:15;;;;;;;3.40;2.35;;;;;;;32.30;61.88;100087.19;4951856;28;66639;-40
2022/07/13 07:43:46;;;;;;;3.70;2.00;;;;;;;32.33;62.13;100081.25;4955308;28;69905;-40
2022/07/13 07:46:17;;;;;;;3.77;2.17;;;;;;;32.34;62.11;100073.94;4948322;28;65680;-39
2022/07/13 07:48:48;;;;;;;3.88;2.33;;;;;;;32.36;62.31;100067.19;4958639;28;70439;-39
2022/07/13 07:51:19;;;;;;;3.63;1.98;;;;;;;32.37;61.86;100068.00;4957032;28;65633;-40
2022/07/13 07:53:49;;;;;;;4.60;2.25;;;;;;;32.38;62.07;100062.34;5034975;28;70697;-40
2022/07/13 07:56:20;;;;;;;9.40;2.40;;;;;;;32.38;61.94;100059.63;4958949;28;66403;-42
2022/07/13 07:58:51;;;;;;;4.20;2.88;;;;;;;32.40;62.00;100049.34;4953232;28;69991;-40
2022/07/13 08:01:22;;;;;;;3.83;2.20;;;;;;;32.39;62.05;100036.03;4958408;28;66367;-40
2022/07/13 08:03:55;;;;;;;6.13;2.33;;;;;;;32.18;61.67;99994.19;4952331;28;69913;-40
2022/07/13 08:06:26;;;;;;;6.80;2.70;;;;;;;32.40;61.99;100032.22;4953678;28;66133;-39
2022/07/13 08:08:57;;;;;;;5.63;2.80;;;;;;;32.23;61.63;100010.56;4965664;28;69823;-40
2022/07/13 08:11:28;;;;;;;3.08;2.20;;;;;;;32.42;61.86;100024.66;4967801;28;65624;-40
2022/07/13 08:13:59;;;;;;;4.47;2.47;;;;;;;32.42;61.65;100014.63;4962403;28;70097;-39
2022/07/13 08:16:30;;;;;;;6.13;2.35;;;;;;;31.97;61.97;99947.00;4955252;28;66286;-40
2022/07/13 08:19:01;;;;;;;7.43;2.20;;;;;;;32.19;62.41;99966.81;4956288;28;70012;-39
2022/07/13 08:21:52;;;;;;;9.25;2.70;;;;;;;32.43;62.06;100005.41;4956856;28;66152;-40
2022/07/13 08:24:22;;;;;;;6.88;3.00;;;;;;;32.42;61.90;100003.75;4956816;28;70267;-41
2022/07/13 08:26:54;;;;;;;3.45;2.42;;;;;;;32.39;61.76;99977.13;4954772;28;65764;-39
2022/07/13 08:29:25;;;;;;;3.20;2.70;;;;;;;32.37;61.78;99992.81;4953813;28;69336;-40
2022/07/13 08:31:55;;;;;;;3.83;2.20;;;;;;;32.46;61.98;99999.50;4953362;28;65590;-40
2022/07/13 08:40:15;;;;;;;3.05;2.55;;;;;;;32.51;61.91;99995.22;4955452;28;70374;-40
2022/07/13 08:42:46;;;;;;;4.88;2.47;;;;;;;32.52;61.97;99994.16;5011887;28;65712;-41
2022/07/13 08:45:17;;;;;;;7.22;2.70;;;;;;;32.51;61.84;99978.91;4957769;28;70023;-39
2022/07/13 08:47:48;;;;;;;5.40;2.85;;;;;;;32.51;61.86;99985.16;5023026;28;65743;-39
2022/07/13 08:50:22;;;;;;;4.45;2.30;;;;;;;32.30;61.76;99942.53;5013283;28;70448;-39
2022/07/13 08:52:53;;;;;;;3.13;2.22;;;;;;;32.57;61.77;99983.31;4952637;28;65993;-40
2022/07/13 08:55:25;;;;;;;8.80;2.78;;;;;;;32.54;61.99;99984.69;4953304;28;70407;-39
2022/07/13 08:57:56;;;;;;;4.85;2.72;;;;;;;32.44;61.71;99971.75;4948388;28;65556;-41
2022/07/13 09:00:27;;;;;;;5.35;2.30;;;;;;;32.37;62.01;99952.13;4952092;28;71996;-39
2022/07/13 09:02:58;;;;;;;6.03;2.50;;;;;;;32.45;61.94;99972.56;4957038;28;66041;-40
2022/07/13 09:05:33;;;;;;;5.85;2.58;;;;;;;32.44;61.82;99974.47;4950938;28;69797;-40
2022/07/13 09:08:06;;;;;;;3.78;2.45;;;;;;;31.76;61.70;99864.50;4942785;28;66537;-39
2022/07/13 09:10:59;;;;;;;3.60;2.33;;;;;;;32.40;61.84;99984.22;4952147;28;70468;-39
2022/07/13 09:13:38;;;;;;;3.83;2.33;;;;;;;32.56;61.73;99990.66;4956743;28;66027;-39
2022/07/13 09:16:20;;;;;;;4.63;2.47;;;;;;;32.13;61.80;99924.44;4952005;28;70227;-38
2022/07/13 09:18:51;;;;;;;;;;;;;;;32.24;62.75;99995.94;4956832;28;66518;-40
2022/07/13 09:21:33;;;;;;;4.40;2.38;;;;;;;32.52;62.12;99991.44;4959900;28;70396;-38
2022/07/13 09:24:04;;;;;;;4.32;2.25;;;;;;;32.52;62.13;99986.00;4957550;28;65839;-39
2022/07/13 09:26:46;;;;;;;2.72;2.38;;;;;;;32.34;61.85;99971.63;4955675;28;69812;-39
2022/07/13 09:29:22;;;;;;;2.92;2.25;;;;;;;31.95;61.98;99906.53;4958387;28;66364;-40
2022/07/13 09:31:55;;;;;;;6.18;3.03;;;;;;;31.95;61.87;99900.31;4956586;28;69406;-39
2022/07/13 09:34:50;;;;;;;2.65;2.30;;;;;;;32.42;61.90;100009.19;4954211;28;68021;-40
2022/07/13 09:37:30;;;;;;;3.72;2.20;;;;;;;32.45;62.17;100014.09;4953873;28;70151;-39
2022/07/13 09:40:09;;;;;;;5.72;2.35;;;;;;;32.46;61.66;100012.28;4958885;28;64984;-40
2022/07/13 09:42:42;;;;;;;2.42;2.22;;;;;;;32.50;62.05;100018.81;4955823;28;70912;-40
2022/07/13 09:48:15;;;;;;;3.65;2.63;;;;;;;32.08;62.01;99969.66;4966428;28;69974;-40
2022/07/13 09:50:53;;;;;;;2.58;1.95;;;;;;;31.85;62.19;99930.81;4957425;28;65726;-40
2022/07/13 09:53:30;;;;;;;4.45;2.50;;;;;;;32.49;62.06;100037.00;4959453;28;69657;-38
2022/07/13 09:56:03;;;;;;;3.40;2.85;;;;;;;32.47;62.19;100036.44;4958663;28;66308;-40
2022/07/13 09:58:40;;;;;;;3.05;2.45;;;;;;;32.47;62.03;100039.16;4956042;28;70185;-39
2022/07/13 10:01:24;;;;;;;3.50;3.10;;;;;;;32.45;62.05;100046.69;4956543;28;65738;-40
2022/07/13 10:04:08;;;;;;;2.97;2.08;;;;;;;32.41;62.06;100045.56;4962280;28;69704;-39
2022/07/13 10:07:09;;;;;;;4.65;1.85;;;;;;;32.39;62.61;100052.31;4976386;28;66110;-40
2022/07/13 10:09:46;;;;;;;4.38;2.85;;;;;;;32.41;62.26;100051.00;4958073;28;70414;-42
2022/07/13 10:12:28;;;;;;;4.57;2.45;;;;;;;32.14;62.44;100012.88;4959811;28;66707;-42
2022/07/13 10:14:59;;;;;;;3.33;2.42;;;;;;;32.41;62.44;100056.41;4953091;28;69830;-40
2022/07/13 10:17:30;;;;;;;2.83;2.53;;;;;;;32.40;62.30;100053.94;4960743;28;66484;-40
2022/07/13 10:20:09;;;;;;;4.32;2.72;;;;;;;32.18;62.44;100035.75;4958865;28;69758;-40
2022/07/13 10:22:46;;;;;;;5.00;2.85;;;;;;;32.04;62.13;100012.75;4952416;28;66326;-40
2022/07/13 10:25:18;;;;;;;6.88;3.28;;;;;;;32.35;62.73;100062.84;4953912;28;70078;-41
2022/07/13 10:28:05;;;;;;;3.33;3.03;;;;;;;32.27;62.48;100083.09;4957770;28;64842;-40
2022/07/13 10:30:36;;;;;;;4.03;3.05;;;;;;;32.31;63.20;100077.97;4954783;28;70327;-39
2022/07/13 10:33:21;;;;;;;5.78;3.88;;;;;;;32.28;63.65;100081.19;4951171;28;65692;-39
2022/07/13 10:35:58;;;;;;;4.82;4.20;;;;;;;32.32;65.05;100085.06;4957661;28;69788;-39
2022/07/13 10:38:29;;;;;;;6.68;4.45;;;;;;;32.06;65.05;100048.56;4947368;28;65290;-39
2022/07/13 10:41:20;;;;;;;6.93;5.07;;;;;;;32.17;66.09;100087.53;4953892;28;69918;-38
2022/07/13 10:44:02;;;;;;;5.40;4.77;;;;;;;32.34;65.93;100088.31;4958356;28;65406;-40
2022/07/13 10:46:49;;;;;;;8.77;4.65;;;;;;;32.17;66.20;100082.94;4958231;28;70496;-40
2022/07/13 10:49:35;;;;;;;8.48;5.07;;;;;;;32.15;66.76;100095.94;4952912;28;65859;-41
2022/07/13 10:52:21;;;;;;;6.93;5.30;;;;;;;31.97;67.96;100105.13;4956552;28;70096;-39
2022/07/13 10:55:13;;;;;;;12.77;5.13;;;;;;;31.88;68.36;100116.63;4954838;28;66554;-40
2022/07/13 10:57:46;;;;;;;7.63;5.60;;;;;;;31.77;68.41;100121.03;5021126;28;70312;-41
2022/07/13 11:00:24;;;;;;;7.15;5.25;;;;;;;31.71;69.16;100117.41;4954611;28;66074;-39
2022/07/13 11:03:05;;;;;;;7.53;5.88;;;;;;;31.31;69.47;100068.66;4954653;28;69772;-39
2022/07/13 11:05:36;;;;;;;6.75;6.00;;;;;;;31.60;70.51;100132.66;4955825;28;66122;-40
2022/07/13 11:08:15;;;;;;;11.23;6.20;;;;;;;31.56;71.08;100139.63;4956523;28;70054;-39
2022/07/13 11:11:17;;;;;;;14.70;6.57;;;;;;;31.45;71.09;100135.09;4958217;28;65258;-39
2022/07/13 11:13:49;;;;;;;6.55;5.82;;;;;;;31.50;70.74;100134.38;4955096;28;70231;-41
2022/07/13 11:16:47;;;;;;;7.28;6.47;;;;;;;31.38;72.04;100139.84;4959422;28;64812;-39
2022/07/13 11:19:50;;;;;;;11.02;6.40;;;;;;;31.46;71.53;100147.59;4957507;28;70655;-40
2022/07/13 11:22:26;;;;;;;8.38;6.28;;;;;;;31.67;70.41;100153.38;4946354;28;66121;-41
2022/07/13 11:25:14;;;;;;;10.38;6.10;;;;;;;31.44;69.91;100106.34;4957335;28;69603;-39
2022/07/13 11:27:56;;;;;;;7.53;5.78;;;;;;;31.66;69.49;100136.31;4949912;28;65674;-40
2022/07/13 11:30:30;;;;;;;12.95;6.57;;;;;;;31.86;68.59;100152.09;4976768;28;70320;-43
2022/07/13 11:33:11;;;;;;;11.93;8.30;;;;;;;31.85;68.72;100134.19;5017738;28;66213;-41
2022/07/13 11:35:46;;;;;;;14.45;9.05;;;;;;;31.96;68.35;100141.47;4956977;28;70199;-42
2022/07/13 11:38:19;;;;;;;11.63;8.93;;;;;;;31.91;67.97;100143.25;4956567;28;66331;-40
2022/07/13 11:40:50;;;;;;;19.77;8.93;;;;;;;32.00;67.67;100158.88;4955409;28;70554;-44
2022/07/13 11:43:22;;;;;;;24.80;10.73;;;;;;;31.91;67.43;100144.09;5018824;28;65936;-42
2022/07/13 11:45:53;;;;;;;18.25;10.18;;;;;;;31.99;67.60;100164.56;5020361;28;69460;-41
2022/07/13 11:48:32;;;;;;;15.25;9.50;;;;;;;31.50;67.30;100099.94;5020924;28;66238;-39
2022/07/13 11:51:10;;;;;;;26.17;10.20;;;;;;;32.03;67.01;100179.28;4955084;28;70132;-42
2022/07/13 11:53:41;;;;;;;14.80;9.32;;;;;;;32.07;67.23;100185.03;5016912;28;65770;-40
2022/07/13 11:56:13;;;;;;;15.32;9.15;;;;;;;32.07;67.19;100182.31;4956178;28;70666;-43
2022/07/13 11:58:45;;;;;;;;;;;;;;;31.73;68.38;100195.78;4997964;28;65123;-39
2022/07/13 12:01:19;;;;;;;15.90;8.73;;;;;;;31.98;67.24;100192.75;4952920;28;69618;-40
2022/07/13 12:03:50;;;;;;;16.30;8.77;;;;;;;32.08;67.24;100213.81;4955321;28;65539;-39
2022/07/13 12:06:27;;;;;;;18.45;9.18;;;;;;;31.11;66.62;100064.50;5003312;28;70174;-42